Terminal Aerodrome Forecast
Issued by NWS El Paso, TX

Home | Current Version | Previous Version | Text Only | Print | Product List | Glossary On
Versions: 1 2 3 4 5 6 7 8 9 10 11 12 13
000
FTUS44 KEPZ 042325
TAFELP
TAF
KELP 042325Z 0500/0524 11010KT P6SM SKC
     FM050300 07008KT P6SM SCT100 SCT250
     FM051600 12012KT P6SM SCT080 BKN250=

USA.gov is the U.S. government's official web portal to all federal, state and local government web resources and services.